Ruskington, United Kingdom
Current Conditions -  °F | °C
As of 4:50 PM on Sunday 23 Nov 2014 (Local Time) from EGYD Reporting Station
Overcast Overcast  
Wind Chill: 40°   Ceiling: 13000
Heat Index: 45°   Visibility: 6mi
Dew Point: 43°   Wind: 9mph
Humidity: 93%   Direction: 300°WNW
Pressure: 30.03"   Gusts: NA
Location:  53.05°N, 0.39°W
Report Text: EGYD 231650Z AUTO 30008KT 9999 // OVC130/// 07/06 Q1017
Loading
Personal Weather Stations






























Interactive Weather Map New forecast layout! Learn more

10-Day Weather Forecast

Advertisements
Track Severe Weather on mobile